Timeline UpdatesTrip UpdatesNews PostsPvt PostsTravel TipsAdmin PostsConv PostsFollowed PostsChat RequestsBlog PostsPNR Posts

Disclaimer
Search
 
 
Fri Aug 29, 2014 10:45:22 ISTHomeTrainsΣChainsAtlasPNRForumGalleryNewsFAQTripsMembersLoginFeedback
No Recent News for this Train
Other Trains in the News **new
Latest...
.
Sat Jan 26, 2013 (03:08PM)
⇐ Return Journey: Train# 59440

59439/Mumbai Central-Ahmedabad Passenger

Feb 22 2014 (11:49PM)
Change Departure Station:
Change Arrival Station:
Post a Train Travel TipPost a Train Travel Tip **new
Post a Comment/Question/Picture/VideoPost a Comment/Question/Picture/Video
Pantry/Catering
✕ NO Pantry Car
✕ NO Catering
RSA - Rake Sharing
59439 and 59442 share rakes.
Rake/Coach Composition
LOCO-SLR-GEN-GEN-GEN-S3-S2-S1-LD-GEN-GEN-GEN-GEN-GEN-GEN-GEN-SLR
Loco
BL WCAM-1/BRC WAG-5A
News    PNR    Forum    Time-Table    Availability    Fare Chart    Map    Arr/Dep History    Trips    Gallery    ΣChains    X/O    Timeline    
Travel Time: 5h 11m    21 halts    Distance: 188 km    Avg Speed: 36 km/hr
Type: Passenger
Zone: WR/Western
Departs @ 12:15 (Avg 1m late)
Platform# 4
SMTWTFS
Mumbai Central/BCT 
Arrives @ 17:26 (Avg 12m late)
Platform# ???
SMTWTFS
Atul/ATUL 

21 halts. 42 intermediate Stations between Mumbai Central and Atul

Show ALL intermediate Stations  Show Old Time-Table

#CodeStation NameX/OArrivesAvgDepartsAvgHaltPFDay#KmSpeedElevZoneAddress
1BCT»Mumbai Central (9)»  -12:15+1410.0273mWRMumbai 400008, Maharashtra
2DDRMumbai Dadar Western (6)  12:28+412:30+72m515.9306mWRMumbai, Maharashtra
3ADHMumbai Andheri (9)  12:52+512:54+72m8117.13112mWRMumbai, Maharashtra
4BVIMumbai Borivali (8)X  13:18+513:20+112m6129.73519mWRMumbai - 400092, Maharashtra
5BSRVasai Road (7)  13:50+213:52+32m4147.1467mWRVasai 401202, Maharashtra
6VRVirar (8)X  14:03+414:05+52m3155.5466mWRDist. Palghar, Maharashtra
7VTNVaitarna (2)  14:16+514:18+42m1164.0673mWRDist. Palghar, Maharashtra
8SAHSaphale (2)X  14:25+714:27+62m1171.8778mWRDist. Palghar, Maharashtra
9KLVKelve Road (3)  14:32+814:34+92m2178.27210mWRDist. Palghar, Maharashtra
10PLGPalghar (3)X  14:41+714:43+82m1186.65619mWRPalghar, Maharashtra
11BORBoisar (3)XO  14:55+1114:57+202m1197.91817mWRBoisar Tel.no-02525-266626, Maharashtra
12VGNVangaon (3)XO  15:28+215:30+62m--1107.35311mWRDist. Palghar, Maharashtra
13DRDDahanu Road (5)X  15:44+315:46+42m11119.66712mWRDahanu, Maharashtra
14GVDGholvad (4)  15:56+415:58+52m--1130.86114mWRGholvad, Maharashtra
15UBRUmbargam Road (3)XO  16:07+616:09+82m11139.92930mWRUmbergaon, Gujarat
16SJNSanjan (3)X  16:20+616:22+82m--1145.36322mWRSanjan, Gujarat
17BLDBhilad (3)  16:33+816:35+112m--1156.95833mWRBhilad, Gujarat
18KEBKarambeli (2)O  16:40-16:42-2m--1161.72429mWRNational Highway 8, Gujarat
19VAPIVapi (3)X  16:58+317:00+52m11168.15027mWRVapi, Gujarat
20BAGDBagwada (2)O  17:08-17:09-1m--1174.84322mWRNH8, Gujarat
21UVDUdvada (3)X  17:13+817:15+82m--1177.77218mWRUdvada, Gujarat
22PADPardi (3)X  17:20+1017:22+102m--1183.76019mWRValsad, Gujarat
23ATUL•Atul (3)•  17:26+1217:28+112m--1187.72922mWRValsad, Gujarat
24BLValsad (3)XO  17:42+518:00+418m21194.46715mWRValsad, Gujarat
25DGIDungri (3)  18:08+918:10+122m11203.36120mWRNH 8, Gujarat
26JRSJoravasan (2)  18:15-18:17-2m11208.44015mWRJoravasan, Gujarat
27BIMBilimora Junction (4)XO  18:23+1018:25+182m--1212.31811mWRBilimora, Gujarat
28AMLAmalsad (3)  18:44+1118:46+122m--1217.94612mWRAmalsad, Gujarat
29ACLAncheli (2)  18:51-18:53-2m--1221.73420mWRNavsari, Gujarat
30VDHVedchha (3)XO  18:59+1019:01+172m--1225.12313mWRNavsari, Gujarat
31NVSNavsari (3)X  19:23+719:25+92m31233.55114mWRNavsari, Gujarat
32MRLMaroli (3)XO  19:35+1219:37+142m--1241.92715mWRMaroli, Gujarat
33SCHSachin (3)XO  19:52+919:54+92m11248.64911mWRKansad Road Sachin, Gujarat
34BHETBhestan (2)  20:01+1020:03+132m11254.32613mWRSurat, Gujarat
35UDNUdhna Junction (3)XO  20:14+1220:16+202m11259.1716mWRUdhna 394210, Gujarat
36STSurat (4)XO  20:49+521:09+320m21263.13919mWRSurat 395001, Gujarat
37URNUtran (3)  21:15+1121:17+102m--1267.06415mWRSurat, Gujarat
38KSEKosad (2)  21:20+1421:22+182m--1270.13717mWRSurat, Gujarat
39GTXGothangam (2)XO  21:28+1921:30+192m--1273.82019mWRAmroli Sayan Rd, Gujarat
40SYNSayan (3)O  21:39+1521:41+172m--1276.85421mWRSayan Satellite town, Gujarat
41KIMKim (2)  21:52+1821:54+182m--1286.75818mWRNH 8, Gujarat
42KSBKosamba Junction (3)X  22:02+1622:04+162m--1294.56630mWRKosamba, Gujarat
43HATHathuran (2)  22:08-22:10-2m--1298.94632mWRKosamba, Gujarat
44PAOPanoli (3)XO  22:15+1922:17+232m--1302.73629mWRPanoli, Gujarat
45AKVAnkleshwar Junction (4)  22:34+1422:36+132m21313.04019mWRAnkleshwar, Gujarat
46BHBharuch Junction (5)X  22:50+1122:52+122m31322.46619mWRBharuch, Gujarat
47NIUNabipur (3)X  23:03+2223:05+212m--1334.45824mWRNabipur, Gujarat
48VREVarediya (4)X  23:12+2323:14+252m--1341.26621mWRNH 8, Gujarat
49PLJPalej (4)O  23:20+2623:22+272m--1347.84429mWRPalej, Gujarat
50MYGMiyagam Karjan (2)  23:43+2123:45+202m21363.06329mWRKarjan, Gujarat
51ITAItola (4)  23:56+2623:58+252m--1374.62627mWRNational Highway 8 Vadodara, Gujarat
52BRCVadodara Junction (7)X  00:40+1300:50+1410m--2392.93136mWRVadodara 390005, Gujarat
53BJWBajva (3)X  01:04+3201:06+332m--2400.12338mWRVadodara, Gujarat
54RNORanoli (2)  01:16+3301:18+352m--2403.98339mWRVadodara District, Gujarat
55NDRNandesari (2)X  01:21-01:23-2m--2408.16042mWRNandesari, Gujarat
56VDAVasad Junction (3)O  01:28+3501:30+342m--2413.14640mWRVasad, Gujarat
57ADDAdas Road (4)X  01:36+3501:38+342m--2417.74142mWRNational Highway 8, Gujarat
58VXDVadod (3)X  01:44+3401:46+352m--2421.82444mWRAnand District, Gujarat
59ANNDAnand Junction (6)  02:03+2102:08+215m--2428.67444mWRAnand, Gujarat
60KBRVKanjari Boriyavi Junction (4)X  02:14+3002:16+292m--2436.14739mWRKanjari, Gujarat
61UTDUtarsanda (4)XO  02:23+2802:25+282m--2441.63340mWRUttarsanda, Gujarat
62NDNadiad Junction (4)XO  02:35+2102:43+188m--2447.16237mWRNadiad, Gujarat
63GTEGothaj (2)XO  02:52+2302:54+252m--2456.32832mWRState Highway 3, Gujarat
64MHDMahemdavad Kheda Road (4)X  03:12+1503:14+182m--2464.65037mWRMahemdavad, Gujarat
65NEPNenpur (2)X  03:19-03:21-2m--2468.83435mWRState Highway 3, Gujarat
66KANJKanij (3)  03:26+1603:28+172m--2471.73339mWRBareja-Barejadi Rd, Gujarat
67BJDBarejadi Nandej (3)XO  03:36+1703:38+172m--2476.01442mWRBareja-Barejadi Rd, Gujarat
68GERGeratpur (2)XO  03:52+803:54+102m--2479.47944mWRAhmadabad, Gujarat
69VTAVatva (4)XO  03:58+1804:00+182m--2484.64849mWRDist. Ahmedabad 382445, Gujarat
70MANManinagar (2)O  04:06+004:08+02m12489.51150mWRAhmadabad, Gujarat
71ADIAhmedabad Junction (12)  04:25+7-42492.6-51mWRAhmedabad, Gujarat
Scroll to Top
Scroll to Bottom